Time;durP1;ratioP1;P1;durP2;ratioP2;P2;SDS_P1;SDS_P2;PMS_P1;PMS_P2;Temp;Humidity;BMP_temperature;BMP_pressure;BME280_temperature;BME280_humidity;BME280_pressure;Samples;Min_cycle;Max_cycle;Signal;HPM_P1;HPM_P2
2023/02/01 00:12:57;;;;;;;0.60;0.50;;;;;;;1.54;75.95;99602.66;30859911;28;96667;-67
2023/02/01 00:27:59;;;;;;;1.25;0.68;;;;;;;1.35;76.23;99620.75;30856929;28;96817;-67
2023/02/01 00:42:59;;;;;;;1.75;0.82;;;;;;;1.36;76.61;99629.44;30857306;28;97223;-67
2023/02/01 00:58:00;;;;;;;1.83;0.82;;;;;;;1.54;77.43;99616.59;30856130;28;97087;-67
2023/02/01 01:13:00;;;;;;;0.70;0.55;;;;;;;1.57;77.68;99637.34;30854960;28;96597;-67
2023/02/01 01:28:00;;;;;;;5.47;1.25;;;;;;;1.93;77.58;99645.78;30853604;28;97003;-67
2023/02/01 01:43:01;;;;;;;1.60;0.40;;;;;;;2.04;76.88;99637.00;30872559;28;97461;-67
2023/02/01 01:58:10;;;;;;;3.80;1.13;;;;;;;1.53;77.01;99656.94;30872620;28;96650;-68
2023/02/01 02:13:11;;;;;;;4.95;2.05;;;;;;;1.21;77.82;99673.50;30871940;28;96713;-67
2023/02/01 02:28:42;;;;;;;3.28;1.17;;;;;;;1.46;78.80;99654.00;30869617;28;97386;-67
2023/02/01 03:14:38;;;;;;;7.47;2.28;;;;;;;2.09;78.51;99660.25;30858463;28;96886;-67
2023/02/01 03:30:07;;;;;;;2.13;0.77;;;;;;;2.24;77.60;99647.63;30863036;28;96729;-66
2023/02/01 03:45:18;;;;;;;7.40;1.30;;;;;;;2.11;76.64;99663.59;30861572;28;96762;-66
2023/02/01 04:00:24;;;;;;;9.60;1.98;;;;;;;2.30;76.38;99655.81;30859515;28;96627;-67
2023/02/01 04:15:24;;;;;;;4.68;1.90;;;;;;;2.11;75.72;99634.69;30857773;28;96613;-66
2023/02/01 04:30:25;;;;;;;6.75;2.42;;;;;;;1.97;75.38;99628.81;30856559;28;97138;-66
2023/02/01 04:45:25;;;;;;;11.20;2.38;;;;;;;1.87;75.29;99630.53;30853919;28;96520;-66
2023/02/01 05:00:25;;;;;;;4.95;1.42;;;;;;;2.41;75.92;99633.06;30829842;28;97218;-66
2023/02/01 05:15:26;;;;;;;3.10;1.45;;;;;;;2.62;74.74;99622.47;30788171;28;97490;-69
2023/02/01 05:30:26;;;;;;;9.55;1.42;;;;;;;2.78;74.32;99604.41;30807924;28;96841;-63
2023/02/01 05:45:27;;;;;;;6.18;1.90;;;;;;;2.82;73.12;99599.72;30819623;28;97136;-67
2023/02/01 06:00:27;;;;;;;10.30;1.52;;;;;;;2.84;73.19;99580.19;30771130;28;97613;-67
2023/02/01 06:15:27;;;;;;;5.60;2.17;;;;;;;2.98;72.46;99562.31;30725195;28;97772;-68
2023/02/01 06:30:28;;;;;;;4.30;1.42;;;;;;;3.08;72.76;99559.75;30743196;28;98108;-67
2023/02/01 06:45:28;;;;;;;8.55;1.33;;;;;;;3.20;71.99;99579.69;30742523;28;97247;-68
2023/02/01 07:00:29;;;;;;;7.97;2.00;;;;;;;3.26;71.41;99576.50;30742547;28;96742;-67
2023/02/01 07:15:29;;;;;;;7.25;1.20;;;;;;;3.48;70.78;99585.09;30739962;28;96734;-67
2023/02/01 07:30:30;;;;;;;4.95;1.70;;;;;;;3.52;70.60;99591.72;30739954;28;97126;-66
2023/02/01 07:45:30;;;;;;;4.85;1.83;;;;;;;3.61;70.14;99585.63;30740609;28;97208;-65
2023/02/01 08:15:49;;;;;;;7.00;1.83;;;;;;;3.97;69.65;99577.94;30734167;28;97120;-69
2023/02/01 08:30:50;;;;;;;12.13;1.75;;;;;;;4.29;69.22;99560.06;30732451;28;96703;-65
2023/02/01 08:45:53;;;;;;;5.32;1.67;;;;;;;4.46;69.14;99558.50;30730550;28;96741;-68
2023/02/01 09:00:54;;;;;;;7.23;2.10;;;;;;;4.37;68.64;99554.91;30734204;28;96563;-70
2023/02/01 09:15:54;;;;;;;4.07;1.80;;;;;;;4.11;69.61;99566.09;30733383;28;96678;-71
2023/02/01 09:30:56;;;;;;;5.22;1.67;;;;;;;4.33;69.53;99540.34;30732734;28;97372;-64
2023/02/01 09:46:23;;;;;;;4.15;1.50;;;;;;;5.05;68.04;99536.03;30724887;28;97085;-65
2023/02/01 10:01:26;;;;;;;5.45;1.85;;;;;;;4.89;68.30;99536.72;30738830;28;96916;-65
2023/02/01 10:16:48;;;;;;;4.85;1.75;;;;;;;5.03;67.64;99505.47;30745065;28;97073;-65
2023/02/01 10:31:49;;;;;;;6.82;2.03;;;;;;;5.48;66.66;99507.19;30744426;28;97038;-65
2023/02/01 10:46:50;;;;;;;4.80;2.30;;;;;;;5.73;66.36;99479.09;30744124;28;96664;-65
2023/02/01 11:01:59;;;;;;;2.60;1.67;;;;;;;5.90;65.26;99460.66;30744006;28;96714;-63
2023/02/01 11:17:18;;;;;;;2.70;1.75;;;;;;;5.16;66.65;99454.94;30739750;28;96912;-63
2023/02/01 11:32:22;;;;;;;4.40;1.52;;;;;;;4.61;67.69;99430.38;30739960;28;96688;-63
2023/02/01 11:47:31;;;;;;;4.33;1.57;;;;;;;4.46;68.60;99400.25;30737086;28;96617;-63
2023/02/01 12:03:09;;;;;;;6.28;1.80;;;;;;;4.16;68.82;99404.88;30734200;28;96775;-63
2023/02/01 12:18:40;;;;;;;4.28;2.17;;;;;;;3.96;70.36;99398.88;30732351;28;96699;-63
2023/02/01 12:33:55;;;;;;;3.58;1.27;;;;;;;3.98;70.91;99410.13;30734431;28;96936;-64
2023/02/01 12:49:00;;;;;;;2.38;1.48;;;;;;;3.85;71.50;99413.06;30731678;28;96922;-63
2023/02/01 13:04:16;;;;;;;3.17;1.58;;;;;;;4.21;71.69;99416.63;30729450;28;96606;-63
2023/02/01 13:19:27;;;;;;;3.38;2.00;;;;;;;7.22;69.03;99431.88;30726443;28;97487;-63
2023/02/01 13:34:56;;;;;;;3.20;2.17;;;;;;;6.72;67.13;99436.31;30740538;28;96717;-66
2023/02/01 13:50:00;;;;;;;5.07;2.72;;;;;;;5.89;67.54;99436.06;30756425;28;97216;-72
2023/02/01 14:05:00;;;;;;;5.00;2.15;;;;;;;7.95;66.73;99446.78;30761712;28;96790;-67
2023/02/01 14:20:38;;;;;;;6.90;1.75;;;;;;;5.84;66.95;99454.22;30748704;28;97546;-66
2023/02/01 14:35:39;;;;;;;6.28;1.40;;;;;;;4.85;68.82;99447.41;30743787;28;97112;-66
2023/02/01 14:50:41;;;;;;;11.30;2.35;;;;;;;6.03;68.41;99458.47;30741591;28;96702;-66
2023/02/01 15:05:41;;;;;;;6.30;1.63;;;;;;;5.99;66.82;99467.69;30741891;28;96670;-66
2023/02/01 15:20:42;;;;;;;7.03;1.83;;;;;;;4.52;67.97;99457.66;30826055;28;96769;-66
2023/02/01 15:35:43;;;;;;;7.15;1.98;;;;;;;4.02;69.83;99474.75;30809025;28;97176;-66
2023/02/01 15:50:44;;;;;;;3.33;2.08;;;;;;;3.82;70.38;99487.97;30819711;28;97288;-65
2023/02/01 16:05:44;;;;;;;7.03;2.42;;;;;;;3.75;70.72;99471.09;30733177;28;97662;-61
2023/02/01 16:20:47;;;;;;;3.72;1.77;;;;;;;3.16;71.14;99491.44;30745027;28;97911;-67
2023/02/01 16:35:49;;;;;;;3.63;2.20;;;;;;;3.02;72.47;99493.53;30764863;28;97683;-66
2023/02/01 16:50:53;;;;;;;7.38;3.70;;;;;;;2.99;72.65;99478.03;30728735;28;97080;-66
2023/02/01 17:05:56;;;;;;;10.60;2.78;;;;;;;2.78;73.08;99456.28;30780078;28;97336;-65
2023/02/01 17:21:01;;;;;;;5.50;3.33;;;;;;;2.51;72.96;99434.09;30816585;28;96979;-68
2023/02/01 17:36:05;;;;;;;13.10;4.07;;;;;;;2.25;73.98;99408.31;30716797;28;97296;-64
2023/02/01 17:51:15;;;;;;;10.57;3.60;;;;;;;2.41;74.58;99391.22;30718836;28;96621;-65
2023/02/01 18:06:18;;;;;;;4.80;2.63;;;;;;;2.74;74.23;99381.25;30717241;28;96829;-63
2023/02/01 18:21:22;;;;;;;5.00;2.07;;;;;;;3.29;73.53;99352.44;30768614;28;97072;-64
2023/02/01 18:36:23;;;;;;;2.35;1.30;;;;;;;3.52;72.53;99341.56;30856404;28;97458;-63
2023/02/01 18:51:24;;;;;;;6.35;2.25;;;;;;;3.22;72.39;99296.91;30855153;28;97353;-62
2023/02/01 19:06:25;;;;;;;6.95;2.50;;;;;;;3.07;72.96;99266.78;30835092;28;97177;-64
2023/02/01 19:21:25;;;;;;;3.58;1.70;;;;;;;3.12;72.81;99258.47;30750679;28;96708;-64
2023/02/01 19:36:26;;;;;;;5.13;2.65;;;;;;;3.08;72.91;99236.06;30813921;28;97408;-65
2023/02/01 19:51:26;;;;;;;3.60;2.13;;;;;;;3.32;72.65;99211.81;30849564;28;97034;-66
2023/02/01 20:06:29;;;;;;;2.33;1.15;;;;;;;3.47;72.23;99199.81;30839565;28;97627;-69
2023/02/01 20:21:29;;;;;;;1.70;1.10;;;;;;;3.08;72.52;99251.84;30734976;28;97288;-69
2023/02/01 20:36:30;;;;;;;1.27;0.77;;;;;;;2.53;73.20;99267.34;30742749;28;96881;-67
2023/02/01 20:51:31;;;;;;;1.73;1.00;;;;;;;1.93;74.69;99282.44;30781890;28;97445;-75
2023/02/01 21:06:31;;;;;;;2.25;1.40;;;;;;;1.70;75.17;99311.59;30779754;28;97537;-71
2023/02/01 21:21:31;;;;;;;5.82;2.53;;;;;;;1.48;75.87;99325.75;30839991;28;97081;-68
2023/02/01 21:36:35;;;;;;;4.60;1.98;;;;;;;1.48;76.64;99352.81;30852735;28;96666;-65
2023/02/01 21:51:38;;;;;;;8.27;1.83;;;;;;;1.57;77.05;99377.44;30858527;28;96820;-67
2023/02/01 22:06:44;;;;;;;3.33;2.27;;;;;;;1.71;77.68;99378.03;30871397;28;97085;-68
2023/02/01 22:21:47;;;;;;;6.82;2.97;;;;;;;1.80;77.98;99399.09;30869221;28;97193;-66
2023/02/01 22:36:47;;;;;;;3.42;2.00;;;;;;;2.00;78.31;99386.84;30867888;28;97015;-65
2023/02/01 22:51:49;;;;;;;6.82;1.92;;;;;;;2.21;78.08;99406.94;30867679;28;97655;-66
2023/02/01 23:06:53;;;;;;;5.30;1.63;;;;;;;2.30;78.63;99416.63;30865674;28;97242;-66
2023/02/01 23:21:53;;;;;;;6.47;2.13;;;;;;;2.43;78.56;99431.31;30863993;28;98042;-66
2023/02/01 23:36:53;;;;;;;4.97;1.92;;;;;;;2.52;78.43;99418.19;30878145;28;98206;-65
2023/02/01 23:51:54;;;;;;;4.63;1.63;;;;;;;2.56;78.43;99405.59;30861607;28;97365;-65
